sensor_id;sensor_type;location;lat;lon;timestamp;pressure;altitude;pressure_sealevel;temperature
73937;BMP180;59249;59.736;30.568;2023-12-22T00:00:14;97781.00;;;0.80
73937;BMP180;59249;59.736;30.568;2023-12-22T00:02:44;97781.00;;;0.70
73937;BMP180;59249;59.736;30.568;2023-12-22T00:05:13;97784.00;;;0.80
73937;BMP180;59249;59.736;30.568;2023-12-22T00:07:42;97779.00;;;0.80
73937;BMP180;59249;59.736;30.568;2023-12-22T00:10:11;97779.00;;;0.70
73937;BMP180;59249;59.736;30.568;2023-12-22T00:12:43;97775.00;;;0.70
73937;BMP180;59249;59.736;30.568;2023-12-22T00:15:13;97765.00;;;0.70
73937;BMP180;59249;59.736;30.568;2023-12-22T00:17:46;97771.00;;;0.80
73937;BMP180;59249;59.736;30.568;2023-12-22T00:20:18;97782.00;;;0.70
73937;BMP180;59249;59.736;30.568;2023-12-22T00:22:50;97766.00;;;0.70
73937;BMP180;59249;59.736;30.568;2023-12-22T00:25:28;97759.00;;;0.70
73937;BMP180;59249;59.736;30.568;2023-12-22T00:28:01;97759.00;;;0.70
73937;BMP180;59249;59.736;30.568;2023-12-22T00:30:38;97743.00;;;0.70
73937;BMP180;59249;59.736;30.568;2023-12-22T00:33:08;97746.00;;;0.60
73937;BMP180;59249;59.736;30.568;2023-12-22T00:35:41;97741.00;;;0.50
73937;BMP180;59249;59.736;30.568;2023-12-22T00:38:15;97736.00;;;0.50
73937;BMP180;59249;59.736;30.568;2023-12-22T00:40:47;97736.00;;;0.40
73937;BMP180;59249;59.736;30.568;2023-12-22T00:43:20;97720.00;;;0.30
73937;BMP180;59249;59.736;30.568;2023-12-22T00:45:49;97722.00;;;0.20
73937;BMP180;59249;59.736;30.568;2023-12-22T00:48:18;97715.00;;;0.10
73937;BMP180;59249;59.736;30.568;2023-12-22T00:50:47;97720.00;;;0.10
73937;BMP180;59249;59.736;30.568;2023-12-22T00:53:16;97715.00;;;0.10
73937;BMP180;59249;59.736;30.568;2023-12-22T00:55:45;97706.00;;;0.00
73937;BMP180;59249;59.736;30.568;2023-12-22T00:58:14;97699.00;;;0.00
73937;BMP180;59249;59.736;30.568;2023-12-22T01:00:56;97696.00;;;0.00
73937;BMP180;59249;59.736;30.568;2023-12-22T01:03:35;97694.00;;;0.00
73937;BMP180;59249;59.736;30.568;2023-12-22T01:06:08;97698.00;;;-0.10
73937;BMP180;59249;59.736;30.568;2023-12-22T01:08:38;97692.00;;;-0.20
73937;BMP180;59249;59.736;30.568;2023-12-22T01:11:07;97694.00;;;-0.20
73937;BMP180;59249;59.736;30.568;2023-12-22T01:13:37;97680.00;;;-0.20
73937;BMP180;59249;59.736;30.568;2023-12-22T01:16:08;97673.00;;;-0.20
73937;BMP180;59249;59.736;30.568;2023-12-22T01:18:37;97673.00;;;-0.20
73937;BMP180;59249;59.736;30.568;2023-12-22T01:21:09;97681.00;;;-0.20
73937;BMP180;59249;59.736;30.568;2023-12-22T01:23:39;97666.00;;;-0.30
73937;BMP180;59249;59.736;30.568;2023-12-22T01:26:08;97673.00;;;-0.20
73937;BMP180;59249;59.736;30.568;2023-12-22T01:28:37;97666.00;;;-0.30
73937;BMP180;59249;59.736;30.568;2023-12-22T01:31:10;97664.00;;;-0.20
73937;BMP180;59249;59.736;30.568;2023-12-22T01:33:39;97652.00;;;-0.30
73937;BMP180;59249;59.736;30.568;2023-12-22T01:36:08;97651.00;;;-0.30
73937;BMP180;59249;59.736;30.568;2023-12-22T01:38:38;97645.00;;;-0.30
73937;BMP180;59249;59.736;30.568;2023-12-22T01:41:08;97642.00;;;-0.30
73937;BMP180;59249;59.736;30.568;2023-12-22T01:43:37;97639.00;;;-0.40
73937;BMP180;59249;59.736;30.568;2023-12-22T01:46:09;97633.00;;;-0.40
73937;BMP180;59249;59.736;30.568;2023-12-22T01:48:40;97621.00;;;-0.40
73937;BMP180;59249;59.736;30.568;2023-12-22T01:51:09;97622.00;;;-0.30
73937;BMP180;59249;59.736;30.568;2023-12-22T01:53:38;97622.00;;;-0.40
73937;BMP180;59249;59.736;30.568;2023-12-22T01:56:07;97625.00;;;-0.40
73937;BMP180;59249;59.736;30.568;2023-12-22T01:58:38;97613.00;;;-0.40
73937;BMP180;59249;59.736;30.568;2023-12-22T02:01:19;97610.00;;;-0.40
73937;BMP180;59249;59.736;30.568;2023-12-22T02:03:49;97603.00;;;-0.30
73937;BMP180;59249;59.736;30.568;2023-12-22T02:06:21;97605.00;;;-0.30
73937;BMP180;59249;59.736;30.568;2023-12-22T02:09:00;97598.00;;;-0.40
73937;BMP180;59249;59.736;30.568;2023-12-22T02:11:40;97601.00;;;-0.40
73937;BMP180;59249;59.736;30.568;2023-12-22T02:14:09;97593.00;;;-0.30
73937;BMP180;59249;59.736;30.568;2023-12-22T02:16:46;97593.00;;;-0.30
73937;BMP180;59249;59.736;30.568;2023-12-22T02:19:30;97587.00;;;-0.40
73937;BMP180;59249;59.736;30.568;2023-12-22T02:22:10;97575.00;;;-0.40
73937;BMP180;59249;59.736;30.568;2023-12-22T02:24:42;97584.00;;;-0.40
73937;BMP180;59249;59.736;30.568;2023-12-22T02:27:22;97574.00;;;-0.50
73937;BMP180;59249;59.736;30.568;2023-12-22T02:30:03;97570.00;;;-0.40
73937;BMP180;59249;59.736;30.568;2023-12-22T02:32:42;97564.00;;;-0.40
73937;BMP180;59249;59.736;30.568;2023-12-22T02:35:16;97556.00;;;-0.50
73937;BMP180;59249;59.736;30.568;2023-12-22T02:37:49;97554.00;;;-0.50
73937;BMP180;59249;59.736;30.568;2023-12-22T02:40:25;97544.00;;;-0.50
73937;BMP180;59249;59.736;30.568;2023-12-22T02:43:02;97549.00;;;-0.60
73937;BMP180;59249;59.736;30.568;2023-12-22T02:45:38;97534.00;;;-0.50
73937;BMP180;59249;59.736;30.568;2023-12-22T02:48:18;97546.00;;;-0.50
73937;BMP180;59249;59.736;30.568;2023-12-22T02:50:51;97548.00;;;-0.50
73937;BMP180;59249;59.736;30.568;2023-12-22T02:53:25;97545.00;;;-0.60
73937;BMP180;59249;59.736;30.568;2023-12-22T02:55:57;97537.00;;;-0.60
73937;BMP180;59249;59.736;30.568;2023-12-22T02:58:26;97538.00;;;-0.60
73937;BMP180;59249;59.736;30.568;2023-12-22T03:00:56;97538.00;;;-0.60
73937;BMP180;59249;59.736;30.568;2023-12-22T03:03:30;97527.00;;;-0.60
73937;BMP180;59249;59.736;30.568;2023-12-22T03:06:02;97538.00;;;-0.60
73937;BMP180;59249;59.736;30.568;2023-12-22T03:08:34;97540.00;;;-0.50
73937;BMP180;59249;59.736;30.568;2023-12-22T03:11:05;97531.00;;;-0.50
73937;BMP180;59249;59.736;30.568;2023-12-22T03:13:34;97526.00;;;-0.50
73937;BMP180;59249;59.736;30.568;2023-12-22T03:16:08;97529.00;;;-0.40
73937;BMP180;59249;59.736;30.568;2023-12-22T03:18:38;97512.00;;;-0.40
73937;BMP180;59249;59.736;30.568;2023-12-22T03:21:07;97505.00;;;-0.40
73937;BMP180;59249;59.736;30.568;2023-12-22T03:23:35;97515.00;;;-0.30
73937;BMP180;59249;59.736;30.568;2023-12-22T03:26:06;97512.00;;;-0.30
73937;BMP180;59249;59.736;30.568;2023-12-22T03:28:35;97497.00;;;-0.30
73937;BMP180;59249;59.736;30.568;2023-12-22T03:31:05;97503.00;;;-0.30
73937;BMP180;59249;59.736;30.568;2023-12-22T03:33:34;97499.00;;;-0.30
73937;BMP180;59249;59.736;30.568;2023-12-22T03:36:04;97499.00;;;-0.20
73937;BMP180;59249;59.736;30.568;2023-12-22T03:38:33;97493.00;;;-0.20
73937;BMP180;59249;59.736;30.568;2023-12-22T03:41:02;97482.00;;;-0.20
73937;BMP180;59249;59.736;30.568;2023-12-22T03:43:33;97471.00;;;-0.20
73937;BMP180;59249;59.736;30.568;2023-12-22T03:46:03;97461.00;;;-0.10
73937;BMP180;59249;59.736;30.568;2023-12-22T03:48:34;97474.00;;;-0.10
73937;BMP180;59249;59.736;30.568;2023-12-22T03:51:04;97469.00;;;-0.10
73937;BMP180;59249;59.736;30.568;2023-12-22T03:53:34;97466.00;;;-0.10
73937;BMP180;59249;59.736;30.568;2023-12-22T03:56:07;97467.00;;;0.00
73937;BMP180;59249;59.736;30.568;2023-12-22T03:58:43;97466.00;;;0.00
73937;BMP180;59249;59.736;30.568;2023-12-22T04:01:15;97452.00;;;0.00
73937;BMP180;59249;59.736;30.568;2023-12-22T04:03:44;97452.00;;;0.00
73937;BMP180;59249;59.736;30.568;2023-12-22T04:06:13;97449.00;;;0.00
73937;BMP180;59249;59.736;30.568;2023-12-22T04:08:42;97446.00;;;0.00
73937;BMP180;59249;59.736;30.568;2023-12-22T04:11:11;97457.00;;;0.10
73937;BMP180;59249;59.736;30.568;2023-12-22T04:13:44;97443.00;;;0.00
73937;BMP180;59249;59.736;30.568;2023-12-22T04:16:17;97448.00;;;0.10
73937;BMP180;59249;59.736;30.568;2023-12-22T04:18:46;97442.00;;;0.20
73937;BMP180;59249;59.736;30.568;2023-12-22T04:21:15;97443.00;;;0.10
73937;BMP180;59249;59.736;30.568;2023-12-22T04:23:44;97451.00;;;0.10
73937;BMP180;59249;59.736;30.568;2023-12-22T04:26:16;97434.00;;;0.20
73937;BMP180;59249;59.736;30.568;2023-12-22T04:28:53;97431.00;;;0.20
73937;BMP180;59249;59.736;30.568;2023-12-22T04:31:23;97425.00;;;0.20
73937;BMP180;59249;59.736;30.568;2023-12-22T04:33:58;97423.00;;;0.20
73937;BMP180;59249;59.736;30.568;2023-12-22T04:36:28;97404.00;;;0.20
73937;BMP180;59249;59.736;30.568;2023-12-22T04:38:57;97419.00;;;0.20
73937;BMP180;59249;59.736;30.568;2023-12-22T04:41:41;97418.00;;;0.20
73937;BMP180;59249;59.736;30.568;2023-12-22T04:44:11;97411.00;;;0.30
73937;BMP180;59249;59.736;30.568;2023-12-22T04:46:40;97412.00;;;0.30
73937;BMP180;59249;59.736;30.568;2023-12-22T04:49:09;97397.00;;;0.20
73937;BMP180;59249;59.736;30.568;2023-12-22T04:51:40;97405.00;;;0.30
73937;BMP180;59249;59.736;30.568;2023-12-22T04:54:41;97412.00;;;0.30
73937;BMP180;59249;59.736;30.568;2023-12-22T04:57:13;97396.00;;;0.40
73937;BMP180;59249;59.736;30.568;2023-12-22T04:59:48;97392.00;;;0.40
73937;BMP180;59249;59.736;30.568;2023-12-22T05:02:21;97399.00;;;0.40
73937;BMP180;59249;59.736;30.568;2023-12-22T05:04:53;97400.00;;;0.40
73937;BMP180;59249;59.736;30.568;2023-12-22T05:07:24;97404.00;;;0.50
73937;BMP180;59249;59.736;30.568;2023-12-22T05:09:57;97398.00;;;0.50
73937;BMP180;59249;59.736;30.568;2023-12-22T05:12:26;97388.00;;;0.50
73937;BMP180;59249;59.736;30.568;2023-12-22T05:14:56;97387.00;;;0.50
73937;BMP180;59249;59.736;30.568;2023-12-22T05:17:26;97394.00;;;0.50
73937;BMP180;59249;59.736;30.568;2023-12-22T05:20:01;97387.00;;;0.50
73937;BMP180;59249;59.736;30.568;2023-12-22T05:22:32;97388.00;;;0.60
73937;BMP180;59249;59.736;30.568;2023-12-22T05:25:06;97382.00;;;0.60
73937;BMP180;59249;59.736;30.568;2023-12-22T05:27:38;97374.00;;;0.60
73937;BMP180;59249;59.736;30.568;2023-12-22T05:30:13;97373.00;;;0.50
73937;BMP180;59249;59.736;30.568;2023-12-22T05:32:44;97377.00;;;0.50
73937;BMP180;59249;59.736;30.568;2023-12-22T05:35:16;97370.00;;;0.50
73937;BMP180;59249;59.736;30.568;2023-12-22T05:37:49;97364.00;;;0.60
73937;BMP180;59249;59.736;30.568;2023-12-22T05:40:19;97358.00;;;0.60
73937;BMP180;59249;59.736;30.568;2023-12-22T05:42:48;97354.00;;;0.50
73937;BMP180;59249;59.736;30.568;2023-12-22T05:45:19;97371.00;;;0.50
73937;BMP180;59249;59.736;30.568;2023-12-22T05:47:49;97357.00;;;0.50
73937;BMP180;59249;59.736;30.568;2023-12-22T05:50:18;97358.00;;;0.40
73937;BMP180;59249;59.736;30.568;2023-12-22T05:52:49;97354.00;;;0.50
73937;BMP180;59249;59.736;30.568;2023-12-22T05:55:18;97356.00;;;0.40
73937;BMP180;59249;59.736;30.568;2023-12-22T05:57:48;97349.00;;;0.40
73937;BMP180;59249;59.736;30.568;2023-12-22T06:00:20;97360.00;;;0.50
73937;BMP180;59249;59.736;30.568;2023-12-22T06:02:50;97354.00;;;0.50
73937;BMP180;59249;59.736;30.568;2023-12-22T06:05:22;97345.00;;;0.40
73937;BMP180;59249;59.736;30.568;2023-12-22T06:07:52;97345.00;;;0.30
73937;BMP180;59249;59.736;30.568;2023-12-22T06:10:21;97342.00;;;0.30
73937;BMP180;59249;59.736;30.568;2023-12-22T06:12:50;97351.00;;;0.30
73937;BMP180;59249;59.736;30.568;2023-12-22T06:15:21;97346.00;;;0.40
73937;BMP180;59249;59.736;30.568;2023-12-22T06:17:52;97343.00;;;0.30
73937;BMP180;59249;59.736;30.568;2023-12-22T06:20:23;97354.00;;;0.30
73937;BMP180;59249;59.736;30.568;2023-12-22T06:22:53;97346.00;;;0.40
73937;BMP180;59249;59.736;30.568;2023-12-22T06:25:22;97350.00;;;0.40
73937;BMP180;59249;59.736;30.568;2023-12-22T06:27:54;97325.00;;;0.30
73937;BMP180;59249;59.736;30.568;2023-12-22T06:30:25;97333.00;;;0.30
73937;BMP180;59249;59.736;30.568;2023-12-22T06:32:58;97348.00;;;0.40
73937;BMP180;59249;59.736;30.568;2023-12-22T06:35:29;97329.00;;;0.30
73937;BMP180;59249;59.736;30.568;2023-12-22T06:38:01;97341.00;;;0.30
73937;BMP180;59249;59.736;30.568;2023-12-22T06:40:36;97339.00;;;0.30
73937;BMP180;59249;59.736;30.568;2023-12-22T06:43:12;97333.00;;;0.30
73937;BMP180;59249;59.736;30.568;2023-12-22T06:45:45;97324.00;;;0.30
73937;BMP180;59249;59.736;30.568;2023-12-22T06:48:15;97326.00;;;0.30
73937;BMP180;59249;59.736;30.568;2023-12-22T06:50:46;97338.00;;;0.30
73937;BMP180;59249;59.736;30.568;2023-12-22T06:53:15;97317.00;;;0.30
73937;BMP180;59249;59.736;30.568;2023-12-22T06:55:53;97317.00;;;0.40
73937;BMP180;59249;59.736;30.568;2023-12-22T06:58:23;97328.00;;;0.40
73937;BMP180;59249;59.736;30.568;2023-12-22T07:00:55;97315.00;;;0.50
73937;BMP180;59249;59.736;30.568;2023-12-22T07:03:26;97317.00;;;0.40
73937;BMP180;59249;59.736;30.568;2023-12-22T07:05:56;97323.00;;;0.40
73937;BMP180;59249;59.736;30.568;2023-12-22T07:08:26;97309.00;;;0.40
73937;BMP180;59249;59.736;30.568;2023-12-22T07:10:55;97326.00;;;0.50
73937;BMP180;59249;59.736;30.568;2023-12-22T07:13:24;97315.00;;;0.50
73937;BMP180;59249;59.736;30.568;2023-12-22T07:15:56;97328.00;;;0.50
73937;BMP180;59249;59.736;30.568;2023-12-22T07:18:26;97315.00;;;0.50
73937;BMP180;59249;59.736;30.568;2023-12-22T07:20:57;97311.00;;;0.40
73937;BMP180;59249;59.736;30.568;2023-12-22T07:23:27;97317.00;;;0.40
73937;BMP180;59249;59.736;30.568;2023-12-22T07:25:56;97291.00;;;0.40
73937;BMP180;59249;59.736;30.568;2023-12-22T07:28:39;97297.00;;;0.40
73937;BMP180;59249;59.736;30.568;2023-12-22T07:31:10;97306.00;;;0.50
73937;BMP180;59249;59.736;30.568;2023-12-22T07:33:41;97294.00;;;0.50
73937;BMP180;59249;59.736;30.568;2023-12-22T07:36:10;97308.00;;;0.50
73937;BMP180;59249;59.736;30.568;2023-12-22T07:38:39;97286.00;;;0.50
73937;BMP180;59249;59.736;30.568;2023-12-22T07:41:08;97281.00;;;0.40
73937;BMP180;59249;59.736;30.568;2023-12-22T07:43:39;97293.00;;;0.50
73937;BMP180;59249;59.736;30.568;2023-12-22T07:46:17;97290.00;;;0.50
73937;BMP180;59249;59.736;30.568;2023-12-22T07:48:48;97290.00;;;0.50
73937;BMP180;59249;59.736;30.568;2023-12-22T07:51:18;97304.00;;;0.50
73937;BMP180;59249;59.736;30.568;2023-12-22T07:53:47;97306.00;;;0.50
73937;BMP180;59249;59.736;30.568;2023-12-22T07:56:17;97285.00;;;0.50
73937;BMP180;59249;59.736;30.568;2023-12-22T07:58:46;97296.00;;;0.60
73937;BMP180;59249;59.736;30.568;2023-12-22T08:01:16;97294.00;;;0.60
73937;BMP180;59249;59.736;30.568;2023-12-22T08:03:46;97267.00;;;0.70
73937;BMP180;59249;59.736;30.568;2023-12-22T08:06:16;97297.00;;;0.60
73937;BMP180;59249;59.736;30.568;2023-12-22T08:08:47;97294.00;;;0.60
73937;BMP180;59249;59.736;30.568;2023-12-22T08:11:25;97294.00;;;0.60
73937;BMP180;59249;59.736;30.568;2023-12-22T08:13:57;97289.00;;;0.60
73937;BMP180;59249;59.736;30.568;2023-12-22T08:16:27;97290.00;;;0.70
73937;BMP180;59249;59.736;30.568;2023-12-22T08:18:57;97285.00;;;0.70
73937;BMP180;59249;59.736;30.568;2023-12-22T08:21:26;97291.00;;;0.70
73937;BMP180;59249;59.736;30.568;2023-12-22T08:24:09;97282.00;;;0.70
73937;BMP180;59249;59.736;30.568;2023-12-22T08:26:48;97292.00;;;0.70
73937;BMP180;59249;59.736;30.568;2023-12-22T08:29:18;97293.00;;;0.70
73937;BMP180;59249;59.736;30.568;2023-12-22T08:31:53;97295.00;;;0.70
73937;BMP180;59249;59.736;30.568;2023-12-22T08:34:25;97293.00;;;0.80
73937;BMP180;59249;59.736;30.568;2023-12-22T08:36:55;97284.00;;;0.80
73937;BMP180;59249;59.736;30.568;2023-12-22T08:39:24;97279.00;;;0.80
73937;BMP180;59249;59.736;30.568;2023-12-22T08:41:54;97281.00;;;0.80
73937;BMP180;59249;59.736;30.568;2023-12-22T08:44:23;97291.00;;;1.00
73937;BMP180;59249;59.736;30.568;2023-12-22T08:46:53;97286.00;;;0.90
73937;BMP180;59249;59.736;30.568;2023-12-22T08:49:22;97267.00;;;1.00
73937;BMP180;59249;59.736;30.568;2023-12-22T08:51:52;97259.00;;;1.00
73937;BMP180;59249;59.736;30.568;2023-12-22T08:54:21;97260.00;;;1.00
73937;BMP180;59249;59.736;30.568;2023-12-22T08:56:50;97270.00;;;1.00
73937;BMP180;59249;59.736;30.568;2023-12-22T08:59:23;97274.00;;;0.90
73937;BMP180;59249;59.736;30.568;2023-12-22T09:01:53;97267.00;;;1.00
73937;BMP180;59249;59.736;30.568;2023-12-22T09:04:22;97263.00;;;0.90
73937;BMP180;59249;59.736;30.568;2023-12-22T09:06:52;97262.00;;;1.00
73937;BMP180;59249;59.736;30.568;2023-12-22T09:09:22;97257.00;;;1.00
73937;BMP180;59249;59.736;30.568;2023-12-22T09:11:54;97260.00;;;1.10
73937;BMP180;59249;59.736;30.568;2023-12-22T09:14:23;97255.00;;;1.10
73937;BMP180;59249;59.736;30.568;2023-12-22T09:16:53;97254.00;;;0.90
73937;BMP180;59249;59.736;30.568;2023-12-22T09:19:23;97252.00;;;1.00
73937;BMP180;59249;59.736;30.568;2023-12-22T09:21:53;97253.00;;;1.10
73937;BMP180;59249;59.736;30.568;2023-12-22T09:24:23;97244.00;;;1.10
73937;BMP180;59249;59.736;30.568;2023-12-22T09:26:56;97239.00;;;1.10
73937;BMP180;59249;59.736;30.568;2023-12-22T09:29:31;97241.00;;;1.00
73937;BMP180;59249;59.736;30.568;2023-12-22T09:32:05;97236.00;;;1.10
73937;BMP180;59249;59.736;30.568;2023-12-22T09:34:35;97236.00;;;1.10
73937;BMP180;59249;59.736;30.568;2023-12-22T09:37:04;97237.00;;;1.20
73937;BMP180;59249;59.736;30.568;2023-12-22T09:39:33;97229.00;;;1.30
73937;BMP180;59249;59.736;30.568;2023-12-22T09:42:03;97222.00;;;1.30
73937;BMP180;59249;59.736;30.568;2023-12-22T09:44:36;97219.00;;;1.40
73937;BMP180;59249;59.736;30.568;2023-12-22T09:47:24;97210.00;;;1.40
73937;BMP180;59249;59.736;30.568;2023-12-22T09:49:58;97221.00;;;1.40
73937;BMP180;59249;59.736;30.568;2023-12-22T09:52:29;97217.00;;;1.40
73937;BMP180;59249;59.736;30.568;2023-12-22T09:55:01;97210.00;;;1.40
73937;BMP180;59249;59.736;30.568;2023-12-22T09:57:33;97206.00;;;1.40
73937;BMP180;59249;59.736;30.568;2023-12-22T10:00:06;97195.00;;;1.50
73937;BMP180;59249;59.736;30.568;2023-12-22T10:02:41;97201.00;;;1.30
73937;BMP180;59249;59.736;30.568;2023-12-22T10:05:15;97203.00;;;1.40
73937;BMP180;59249;59.736;30.568;2023-12-22T10:07:47;97205.00;;;1.40
73937;BMP180;59249;59.736;30.568;2023-12-22T10:10:21;97203.00;;;1.40
73937;BMP180;59249;59.736;30.568;2023-12-22T10:12:51;97192.00;;;1.40
73937;BMP180;59249;59.736;30.568;2023-12-22T10:15:24;97192.00;;;1.40
73937;BMP180;59249;59.736;30.568;2023-12-22T10:17:59;97195.00;;;1.40
73937;BMP180;59249;59.736;30.568;2023-12-22T10:20:28;97186.00;;;1.40
73937;BMP180;59249;59.736;30.568;2023-12-22T10:23:04;97197.00;;;1.40
73937;BMP180;59249;59.736;30.568;2023-12-22T10:25:36;97196.00;;;1.50
73937;BMP180;59249;59.736;30.568;2023-12-22T10:28:16;97188.00;;;1.50
73937;BMP180;59249;59.736;30.568;2023-12-22T10:30:53;97209.00;;;1.50
73937;BMP180;59249;59.736;30.568;2023-12-22T10:33:29;97191.00;;;1.60
73937;BMP180;59249;59.736;30.568;2023-12-22T10:35:59;97197.00;;;1.60
73937;BMP180;59249;59.736;30.568;2023-12-22T10:38:33;97186.00;;;1.60
73937;BMP180;59249;59.736;30.568;2023-12-22T10:41:06;97175.00;;;1.70
73937;BMP180;59249;59.736;30.568;2023-12-22T10:43:47;97182.00;;;1.70
73937;BMP180;59249;59.736;30.568;2023-12-22T10:46:26;97176.00;;;1.70
73937;BMP180;59249;59.736;30.568;2023-12-22T10:49:05;97171.00;;;1.60
73937;BMP180;59249;59.736;30.568;2023-12-22T10:51:47;97172.00;;;1.70
73937;BMP180;59249;59.736;30.568;2023-12-22T10:54:24;97160.00;;;1.70
73937;BMP180;59249;59.736;30.568;2023-12-22T10:57:03;97178.00;;;1.60
73937;BMP180;59249;59.736;30.568;2023-12-22T10:59:47;97177.00;;;1.70
73937;BMP180;59249;59.736;30.568;2023-12-22T11:02:28;97184.00;;;1.70
73937;BMP180;59249;59.736;30.568;2023-12-22T11:05:05;97182.00;;;1.70
73937;BMP180;59249;59.736;30.568;2023-12-22T11:07:42;97172.00;;;1.70
73937;BMP180;59249;59.736;30.568;2023-12-22T11:10:32;97164.00;;;1.70
73937;BMP180;59249;59.736;30.568;2023-12-22T11:13:09;97182.00;;;1.80
73937;BMP180;59249;59.736;30.568;2023-12-22T11:15:43;97171.00;;;1.80
73937;BMP180;59249;59.736;30.568;2023-12-22T11:18:18;97174.00;;;1.80
73937;BMP180;59249;59.736;30.568;2023-12-22T11:20:54;97179.00;;;1.80
73937;BMP180;59249;59.736;30.568;2023-12-22T11:23:29;97177.00;;;1.90
73937;BMP180;59249;59.736;30.568;2023-12-22T11:26:03;97181.00;;;1.80
73937;BMP180;59249;59.736;30.568;2023-12-22T11:28:46;97183.00;;;1.80
73937;BMP180;59249;59.736;30.568;2023-12-22T11:31:20;97177.00;;;1.80
73937;BMP180;59249;59.736;30.568;2023-12-22T11:33:54;97185.00;;;1.80
73937;BMP180;59249;59.736;30.568;2023-12-22T11:36:40;97192.00;;;1.80
73937;BMP180;59249;59.736;30.568;2023-12-22T11:39:11;97179.00;;;1.80
73937;BMP180;59249;59.736;30.568;2023-12-22T11:41:42;97177.00;;;1.80
73937;BMP180;59249;59.736;30.568;2023-12-22T11:44:16;97169.00;;;1.70
73937;BMP180;59249;59.736;30.568;2023-12-22T11:47:03;97175.00;;;1.70
73937;BMP180;59249;59.736;30.568;2023-12-22T11:49:39;97183.00;;;1.70
73937;BMP180;59249;59.736;30.568;2023-12-22T11:52:12;97183.00;;;1.70
73937;BMP180;59249;59.736;30.568;2023-12-22T11:54:50;97181.00;;;1.70
73937;BMP180;59249;59.736;30.568;2023-12-22T11:57:32;97180.00;;;1.70
73937;BMP180;59249;59.736;30.568;2023-12-22T12:00:05;97174.00;;;1.70
73937;BMP180;59249;59.736;30.568;2023-12-22T12:02:41;97184.00;;;1.70
73937;BMP180;59249;59.736;30.568;2023-12-22T12:05:27;97183.00;;;1.70
73937;BMP180;59249;59.736;30.568;2023-12-22T12:08:06;97183.00;;;1.60
73937;BMP180;59249;59.736;30.568;2023-12-22T12:10:52;97171.00;;;1.60
73937;BMP180;59249;59.736;30.568;2023-12-22T12:13:23;97176.00;;;1.50
73937;BMP180;59249;59.736;30.568;2023-12-22T12:15:58;97186.00;;;1.50
73937;BMP180;59249;59.736;30.568;2023-12-22T12:18:41;97171.00;;;1.60
73937;BMP180;59249;59.736;30.568;2023-12-22T12:21:21;97176.00;;;1.60
73937;BMP180;59249;59.736;30.568;2023-12-22T12:23:55;97180.00;;;1.60
73937;BMP180;59249;59.736;30.568;2023-12-22T12:26:30;97178.00;;;1.60
73937;BMP180;59249;59.736;30.568;2023-12-22T12:29:02;97182.00;;;1.60
73937;BMP180;59249;59.736;30.568;2023-12-22T12:31:37;97178.00;;;1.60
73937;BMP180;59249;59.736;30.568;2023-12-22T12:34:16;97173.00;;;1.60
73937;BMP180;59249;59.736;30.568;2023-12-22T12:36:49;97174.00;;;1.70
73937;BMP180;59249;59.736;30.568;2023-12-22T12:39:30;97176.00;;;1.50
73937;BMP180;59249;59.736;30.568;2023-12-22T12:42:06;97175.00;;;1.60
73937;BMP180;59249;59.736;30.568;2023-12-22T12:44:41;97177.00;;;1.60
73937;BMP180;59249;59.736;30.568;2023-12-22T12:47:12;97175.00;;;1.60
73937;BMP180;59249;59.736;30.568;2023-12-22T12:49:57;97180.00;;;1.60
73937;BMP180;59249;59.736;30.568;2023-12-22T12:52:33;97186.00;;;1.60
73937;BMP180;59249;59.736;30.568;2023-12-22T12:55:16;97191.00;;;1.60
73937;BMP180;59249;59.736;30.568;2023-12-22T12:57:53;97182.00;;;1.60
73937;BMP180;59249;59.736;30.568;2023-12-22T13:00:30;97177.00;;;1.60
73937;BMP180;59249;59.736;30.568;2023-12-22T13:03:07;97183.00;;;1.50
73937;BMP180;59249;59.736;30.568;2023-12-22T13:05:43;97184.00;;;1.60
73937;BMP180;59249;59.736;30.568;2023-12-22T13:08:28;97190.00;;;1.60
73937;BMP180;59249;59.736;30.568;2023-12-22T13:11:13;97181.00;;;1.60
73937;BMP180;59249;59.736;30.568;2023-12-22T13:13:52;97180.00;;;1.60
73937;BMP180;59249;59.736;30.568;2023-12-22T13:16:24;97183.00;;;1.60
73937;BMP180;59249;59.736;30.568;2023-12-22T13:18:57;97185.00;;;1.70
73937;BMP180;59249;59.736;30.568;2023-12-22T13:21:29;97192.00;;;1.70
73937;BMP180;59249;59.736;30.568;2023-12-22T13:24:10;97192.00;;;1.60
73937;BMP180;59249;59.736;30.568;2023-12-22T13:26:43;97193.00;;;1.70
73937;BMP180;59249;59.736;30.568;2023-12-22T13:29:17;97193.00;;;1.70
73937;BMP180;59249;59.736;30.568;2023-12-22T13:31:48;97187.00;;;1.70
73937;BMP180;59249;59.736;30.568;2023-12-22T13:34:22;97191.00;;;1.70
73937;BMP180;59249;59.736;30.568;2023-12-22T13:36:56;97183.00;;;1.60
73937;BMP180;59249;59.736;30.568;2023-12-22T13:39:27;97184.00;;;1.70
73937;BMP180;59249;59.736;30.568;2023-12-22T13:42:02;97180.00;;;1.70
73937;BMP180;59249;59.736;30.568;2023-12-22T13:44:42;97188.00;;;1.70
73937;BMP180;59249;59.736;30.568;2023-12-22T13:47:23;97180.00;;;1.70
73937;BMP180;59249;59.736;30.568;2023-12-22T13:49:57;97183.00;;;1.70
73937;BMP180;59249;59.736;30.568;2023-12-22T13:52:31;97196.00;;;1.70
73937;BMP180;59249;59.736;30.568;2023-12-22T13:55:10;97197.00;;;1.70
73937;BMP180;59249;59.736;30.568;2023-12-22T13:57:47;97204.00;;;1.70
73937;BMP180;59249;59.736;30.568;2023-12-22T14:00:27;97197.00;;;1.70
73937;BMP180;59249;59.736;30.568;2023-12-22T14:03:09;97197.00;;;1.70
73937;BMP180;59249;59.736;30.568;2023-12-22T14:05:44;97188.00;;;1.70
73937;BMP180;59249;59.736;30.568;2023-12-22T14:08:15;97202.00;;;1.60
73937;BMP180;59249;59.736;30.568;2023-12-22T14:10:45;97211.00;;;1.70
73937;BMP180;59249;59.736;30.568;2023-12-22T14:13:21;97206.00;;;1.70
73937;BMP180;59249;59.736;30.568;2023-12-22T14:15:50;97199.00;;;1.70
73937;BMP180;59249;59.736;30.568;2023-12-22T14:18:23;97208.00;;;1.70
73937;BMP180;59249;59.736;30.568;2023-12-22T14:20:57;97205.00;;;1.60
73937;BMP180;59249;59.736;30.568;2023-12-22T14:23:32;97214.00;;;1.70
73937;BMP180;59249;59.736;30.568;2023-12-22T14:26:18;97206.00;;;1.70
73937;BMP180;59249;59.736;30.568;2023-12-22T14:28:51;97210.00;;;1.80
73937;BMP180;59249;59.736;30.568;2023-12-22T14:31:22;97215.00;;;1.80
73937;BMP180;59249;59.736;30.568;2023-12-22T14:33:52;97210.00;;;1.80
73937;BMP180;59249;59.736;30.568;2023-12-22T14:36:22;97207.00;;;1.80
73937;BMP180;59249;59.736;30.568;2023-12-22T14:38:51;97213.00;;;1.80